Latest Weather Observations for Wilsons Promontory

IDV60801

Issued at 5:02 pm EST Wednesday 1 June 2016 (issued every 30 minutes, with the page automatically refreshed every 10 minutes)

About weather observations | Map of weather stations | Latest weather observations for VIC | Other Formats
Station Details ID: 085096 Name: WILSONS PROMONTORY LIGHTHOUSE Lat: -39.13 Lon: 146.42 Height: 95.0 m
Data from the previous 72 hours. | See also: Recent months at Wilsons Promontory
Date/Time
EST
Temp
°C
App
Temp
°C
Dew
Point
Rel
Hum
%
Delta-T
°C
Wind Press
QNH
hPa
Press
MSL
hPa
Rain
since 9 am
mm
Dir
 
Spd
km/h
Gust
km/h
Spd
kts
Gust
kts
01/05:00pm 12.4 9.0 9.1 80 1.7 NNE 17 20 9 11 1028.0 - 0.0
01/04:30pm 12.6 8.6 8.9 78 1.9 NNE 20 24 11 13 1027.8 - 0.0
01/04:00pm 12.8 8.4 9.1 78 1.9 NNE 22 30 12 16 1027.7 - 0.0
01/03:30pm 13.3 9.2 8.8 74 2.3 NNE 20 30 11 16 1027.6 - 0.0
01/03:00pm 13.5 8.6 8.6 72 2.5 NNE 24 30 13 16 1027.6 1027.7 0.0
01/02:30pm 13.7 8.8 8.3 70 2.7 NNE 24 30 13 16 1027.8 - 0.0
01/02:00pm 13.9 8.3 7.0 63 3.4 NNE 26 33 14 18 1028.0 - 0.0
01/01:30pm 14.2 8.5 6.8 61 3.6 NNE 26 32 14 17 1028.0 - 0.0
01/01:00pm 14.5 9.4 7.5 63 3.5 NNE 24 32 13 17 1028.3 - 0.0
01/12:30pm 14.7 9.2 7.7 63 3.5 NNE 26 33 14 18 1028.6 - 0.0
01/12:00pm 14.8 9.5 8.3 65 3.3 NNE 26 33 14 18 1028.9 1029.0 0.0
01/11:30am 14.6 9.4 9.0 69 2.9 NNE 26 33 14 18 1029.4 - 0.0
01/11:00am 14.4 9.6 8.8 69 2.8 NNE 24 32 13 17 1029.6 - 0.0
01/10:30am 14.4 9.2 9.0 70 2.8 NNE 26 33 14 18 1029.8 - 0.0
01/10:00am 14.5 9.5 9.5 72 2.6 NNE 26 33 14 18 1029.5 - 0.0
01/09:30am 14.0 9.2 9.0 72 2.5 NNE 24 30 13 16 1029.4 - 0.0
01/09:00am 13.5 9.1 8.8 73 2.4 NNE 22 28 12 15 1029.5 1029.6 0.0
01/08:30am 13.1 8.6 8.4 73 2.4 NNE 22 28 12 15 1029.4 - 0.0
01/08:00am 13.1 8.6 8.4 73 2.4 NNE 22 32 12 17 1029.3 - 0.0
01/07:30am 12.7 8.1 8.2 74 2.2 NNE 22 28 12 15 1029.2 - 0.0
01/07:00am 12.7 8.2 8.4 75 2.1 NNE 22 30 12 16 1029.1 - 0.0
01/06:30am 13.2 7.5 8.5 73 2.4 NE 28 35 15 19 1028.8 - 0.0
01/06:00am 13.4 6.9 8.3 71 2.5 NE 32 35 17 19 1028.6 1028.7 0.0
01/05:30am 13.2 7.9 8.5 73 2.4 NE 26 35 14 19 1028.6 - 0.0
01/05:00am 13.4 7.2 8.0 70 2.7 NE 30 39 16 21 1028.4 - 0.0
01/04:30am 13.4 6.5 7.4 67 2.9 NE 33 41 18 22 1028.3 - 0.0
01/04:00am 13.5 6.6 7.1 65 3.1 NE 33 41 18 22 1028.4 - 0.0
01/03:30am 13.7 8.3 8.1 69 2.8 NE 26 33 14 18 1028.9 - 0.0
01/03:00am 13.7 7.8 7.7 67 2.9 NE 28 35 15 19 1029.0 1029.1 0.0
01/02:30am 13.7 6.9 7.7 67 3.0 NE 33 41 18 22 1029.1 - 0.0
01/02:00am 13.7 6.9 7.5 66 3.1 NE 33 39 18 21 1029.1 - 0.0
01/01:30am 13.6 6.4 7.8 68 2.9 NE 35 43 19 23 1029.2 - 0.0
01/01:00am 13.7 6.2 8.1 69 2.8 NE 37 48 20 26 1029.1 - 0.0
01/12:30am 13.7 5.4 7.9 68 2.9 NE 41 48 22 26 1029.0 - 0.0
01/12:00am 13.8 6.4 8.2 69 2.8 NE 37 46 20 25 1029.4 1029.5 0.0
 
Date/Time
EST
Temp
°C
App
Temp
°C
Dew
Point
Rel
Hum
%
Delta-T
°C
Wind Press
QNH
hPa
Press
MSL
hPa
Rain
since 9 am
mm
Dir
 
Spd
km/h
Gust
km/h
Spd
kts
Gust
kts
31/11:30pm 13.7 6.2 7.9 68 2.9 NE 37 48 20 26 1029.4 - 0.0
31/11:00pm 13.7 5.4 7.9 68 2.9 NE 41 48 22 26 1029.3 - 0.0
31/10:30pm 13.6 5.8 8.2 70 2.7 ENE 39 50 21 27 1029.3 - 0.0
31/10:00pm 13.6 5.8 8.4 71 2.6 ENE 39 46 21 25 1029.5 - 0.0
31/09:30pm 13.6 5.4 8.2 70 2.7 ENE 41 48 22 26 1029.6 - 0.0
31/09:00pm 13.6 5.1 8.4 71 2.6 ENE 43 50 23 27 1029.5 1029.5 0.0
31/08:30pm 13.6 5.4 8.4 71 2.6 ENE 41 50 22 27 1029.4 - 0.0
31/08:00pm 13.6 5.0 8.0 69 2.8 ENE 43 50 23 27 1029.4 - 0.0
31/07:30pm 13.6 5.3 7.6 67 3.0 ENE 41 48 22 26 1029.4 - 0.0
31/07:00pm 13.6 5.0 8.0 69 2.8 NE 43 50 23 27 1029.3 - 0.0
31/06:30pm 13.6 5.0 8.0 69 2.8 ENE 43 50 23 27 1029.2 - 0.0
31/06:00pm 13.5 4.7 7.9 69 2.8 ENE 44 50 24 27 1029.0 1029.0 0.0
31/05:30pm 13.5 5.3 8.1 70 2.7 ENE 41 48 22 26 1028.9 - 0.0
31/05:00pm 13.5 5.0 8.4 71 2.6 ENE 43 48 23 26 1028.8 - 0.0
31/04:30pm 13.5 5.3 8.4 71 2.6 ENE 41 48 22 26 1028.6 - 0.0
31/04:00pm 13.4 7.0 9.3 76 2.1 NE 33 41 18 22 1028.7 - 0.0
31/03:30pm 13.4 7.0 9.5 77 2.0 NE 33 39 18 21 1028.8 - 0.0
31/03:00pm 13.4 7.7 9.8 79 1.8 NE 30 35 16 19 1028.9 1028.9 0.0
31/02:30pm 13.7 8.5 10.1 79 1.9 NE 28 32 15 17 1028.9 - 0.0
31/02:00pm 13.6 8.7 10.0 79 1.9 NE 26 32 14 17 1029.0 - 0.0
31/01:30pm 13.5 7.9 10.1 80 1.8 NE 30 35 16 19 1029.3 - 0.0
31/01:00pm 13.1 5.6 9.4 78 1.9 NE 39 50 21 27 1029.4 - 0.0
31/12:30pm 13.8 7.7 9.6 76 2.2 NE 32 37 17 20 1029.7 - 0.0
31/12:00pm 14.1 8.0 9.7 75 2.3 NE 32 39 17 21 1030.0 1030.0 0.0
31/11:30am 13.7 7.9 9.6 76 2.1 NE 30 35 16 19 1030.5 - 0.0
31/11:00am 13.7 9.7 10.5 81 1.7 NE 22 28 12 15 1030.9 - 0.0
31/10:30am 13.8 10.4 10.4 80 1.8 NE 19 26 10 14 1031.1 - 0.0
31/10:00am 13.3 8.9 10.3 82 1.6 NNE 24 30 13 16 1031.1 - 0.0
31/09:30am 12.3 7.0 9.7 84 1.3 NNE 28 33 15 18 1030.8 - 0.0
31/09:00am 12.3 7.4 9.9 85 1.2 NNE 26 35 14 19 1030.7 1030.7 0.6
31/08:30am 12.2 7.3 9.9 86 1.2 NNE 26 35 14 19 1030.5 - 0.6
31/08:00am 12.4 7.1 10.0 85 1.2 NNE 28 37 15 20 1030.1 - 0.6
31/07:30am 12.3 6.3 10.2 87 1.1 NNE 32 43 17 23 1029.8 - 0.6
31/07:07am 12.3 7.0 10.0 86 1.2 NNE 28 46 15 25 1029.5 - 0.6
31/07:00am 12.3 7.4 10.0 86 1.2 NNE 26 37 14 20 1029.5 - 0.6
31/06:30am 12.3 6.6 9.9 85 1.2 NNE 30 46 16 25 1029.1 - 0.6
31/06:21am 12.6 7.4 10.1 85 1.3 NNE 28 46 15 25 1029.0 - 0.6
31/06:00am 11.8 6.9 9.9 88 1.0 NNE 26 39 14 21 1029.0 1029.0 0.6
31/05:30am 12.0 5.9 9.9 87 1.1 NNE 32 43 17 23 1028.8 - 0.6
31/05:25am 12.2 6.1 9.9 86 1.2 NNE 32 50 17 27 1028.8 - 0.6
31/05:00am 12.0 3.8 9.6 85 1.2 ENE 43 52 23 28 1028.7 - 0.6
31/04:30am 12.4 4.7 10.1 86 1.2 ENE 41 52 22 28 1028.6 - 0.6
31/04:16am 12.5 5.1 10.0 85 1.3 ENE 39 46 21 25 1028.7 - 0.6
31/04:00am 12.4 7.8 9.6 83 1.4 NNE 24 33 13 18 1028.8 - 0.6
31/03:30am 12.9 6.7 9.4 79 1.8 NE 32 39 17 21 1028.6 - 0.6
31/03:00am 12.5 6.1 8.4 76 2.0 NE 32 43 17 23 1028.6 1028.6 0.6
31/02:37am 12.4 6.9 9.2 81 1.6 NNE 28 46 15 25 1028.5 - 0.6
31/02:30am 11.8 6.4 9.4 85 1.2 NNE 28 43 15 23 1028.6 - 0.6
31/02:00am 12.7 6.1 10.1 84 1.3 NE 35 54 19 29 1028.5 - 0.6
31/01:30am 12.3 6.1 10.0 86 1.2 ENE 33 37 18 20 1028.6 - 0.6
31/01:00am 11.7 6.1 10.1 90 0.8 ENE 30 35 16 19 1028.8 - 0.6
31/12:30am 11.5 2.7 9.6 88 1.0 NE 46 61 25 33 1028.7 - 0.2
31/12:22am 12.7 5.7 9.9 83 1.4 NE 37 61 20 33 1028.5 - 0.0
31/12:00am 13.0 6.7 9.8 81 1.6 NE 33 39 18 21 1028.7 1028.7 0.0
 
Date/Time
EST
Temp
°C
App
Temp
°C
Dew
Point
Rel
Hum
%
Delta-T
°C
Wind Press
QNH
hPa
Press
MSL
hPa
Rain
since 9 am
mm
Dir
 
Spd
km/h
Gust
km/h
Spd
kts
Gust
kts
30/11:30pm 13.0 6.9 9.6 80 1.7 NE 32 39 17 21 1028.7 - 0.0
30/11:00pm 12.9 7.6 9.9 82 1.5 NE 28 35 15 19 1028.6 - 0.0
30/10:30pm 12.9 7.6 9.9 82 1.5 NE 28 33 15 18 1028.6 - 0.0
30/10:00pm 12.9 7.6 9.7 81 1.6 NE 28 33 15 18 1028.5 - 0.0
30/09:30pm 12.7 7.3 9.5 81 1.6 ENE 28 32 15 17 1028.5 - 0.0
30/09:00pm 12.4 8.2 9.6 83 1.4 NE 22 30 12 16 1028.5 1028.5 0.0
30/08:30pm 12.4 7.4 9.6 83 1.4 NE 26 32 14 17 1028.2 - 0.0
30/08:00pm 12.5 6.3 9.5 82 1.5 ENE 32 39 17 21 1028.1 - 0.0
30/07:30pm 12.4 7.4 9.6 83 1.4 ENE 26 32 14 17 1028.0 - 0.0
30/07:00pm 12.1 7.4 9.3 83 1.4 ENE 24 28 13 15 1027.8 - 0.0
30/06:30pm 12.2 6.7 9.2 82 1.5 ENE 28 33 15 18 1027.6 - 0.0
30/06:00pm 12.2 7.8 9.0 81 1.6 ENE 22 26 12 14 1027.5 1027.5 0.0
30/05:30pm 11.8 9.3 8.3 79 1.7 NE 11 17 6 9 1027.3 - 0.0
30/05:00pm 12.1 9.6 8.0 76 2.0 ENE 11 15 6 8 1026.9 - 0.0
30/04:30pm 12.4 9.4 7.9 74 2.2 ENE 13 15 7 8 1026.8 - 0.0
30/04:00pm 12.5 10.7 7.8 73 2.3 E 7 13 4 7 1026.6 - 0.0
30/03:30pm 12.6 12.0 7.5 71 2.5 CALM 0 0 0 0 1026.4 - 0.0
30/03:00pm 12.7 12.1 7.4 70 2.6 CALM 0 6 0 3 1026.2 1026.3 0.0
30/02:30pm 12.8 11.0 7.0 68 2.8 SSE 6 11 3 6 1026.1 - 0.0
30/02:00pm 12.8 11.0 7.3 69 2.7 SW 6 11 3 6 1026.0 - 0.0
30/01:30pm 12.9 11.2 7.4 69 2.7 SW 6 11 3 6 1026.1 - 0.0
30/01:00pm 12.8 11.8 7.3 69 2.7 SW 2 7 1 4 1026.2 - 0.0
30/12:30pm 12.5 9.3 6.8 68 2.7 SW 13 17 7 9 1026.3 - 0.0
30/12:00pm 12.6 8.6 6.6 67 2.9 SW 17 20 9 11 1026.4 1026.5 0.0
30/11:30am 12.3 8.7 6.6 68 2.7 WSW 15 20 8 11 1026.6 - 0.0
30/11:00am 12.2 8.1 6.3 67 2.8 WSW 17 20 9 11 1026.7 - 0.0
30/10:30am 12.3 8.0 7.0 70 2.6 WSW 19 24 10 13 1026.7 - 0.0
30/10:00am 12.4 8.5 6.9 69 2.7 W 17 24 9 13 1026.3 - 0.0
30/09:30am 11.9 7.9 6.8 71 2.4 W 17 24 9 13 1026.1 - 0.0
30/09:00am 11.4 7.0 6.5 72 2.3 W 19 22 10 12 1026.0 1026.1 0.0
30/08:30am 11.1 7.1 6.5 73 2.2 W 17 22 9 12 1025.7 - 0.0
30/08:00am 10.9 6.3 6.5 74 2.1 W 20 28 11 15 1025.4 - 0.0
30/07:30am 10.6 6.0 6.6 76 1.9 W 20 26 11 14 1025.0 - 0.0
30/07:00am 10.6 5.5 6.2 74 2.1 W 22 28 12 15 1024.7 - 0.0
30/06:30am 10.6 5.2 6.4 75 2.0 W 24 28 13 15 1024.3 - 0.0
30/06:00am 10.5 5.0 6.1 74 2.0 W 24 30 13 16 1023.9 1023.9 0.0
30/05:30am 10.5 5.4 5.9 73 2.1 W 22 28 12 15 1023.7 - 0.0
30/05:00am 10.3 4.8 5.7 73 2.1 W 24 28 13 15 1023.4 - 0.0
30/04:30am 10.4 4.8 5.6 72 2.2 W 24 30 13 16 1023.2 - 0.0
30/04:00am 10.5 4.6 5.7 72 2.2 W 26 32 14 17 1022.9 - 0.0
30/03:30am 10.4 5.2 5.6 72 2.2 W 22 30 12 16 1022.7 - 0.0
30/03:00am 10.8 6.1 6.0 72 2.2 W 20 33 11 18 1022.7 1022.7 0.0
30/02:30am 10.7 5.1 5.5 70 2.4 W 24 33 13 18 1022.5 - 0.0
30/02:00am 11.4 5.5 5.9 69 2.6 WSW 26 35 14 19 1022.3 - 0.0
30/01:30am 11.6 5.0 5.9 68 2.7 WSW 30 41 16 22 1021.9 - 0.0
30/01:00am 11.7 7.3 6.4 70 2.5 W 19 37 10 20 1021.9 - 0.0
30/12:30am 11.8 6.3 5.7 66 2.9 W 24 37 13 20 1021.7 - 0.0
30/12:00am 11.8 4.6 5.7 66 2.8 WSW 33 41 18 22 1021.7 1021.7 0.0
 
Date/Time
EST
Temp
°C
App
Temp
°C
Dew
Point
Rel
Hum
%
Delta-T
°C
Wind Press
QNH
hPa
Press
MSL
hPa
Rain
since 9 am
mm
Dir
 
Spd
km/h
Gust
km/h
Spd
kts
Gust
kts
29/11:30pm 11.8 6.3 5.7 66 2.9 WSW 24 37 13 20 1021.7 - 0.0
29/11:00pm 11.8 5.6 6.1 68 2.7 W 28 35 15 19 1021.5 - 0.0
29/10:30pm 12.0 3.7 6.3 68 2.7 WSW 39 44 21 24 1021.1 - 0.0
29/10:00pm 11.9 7.4 6.2 68 2.7 W 19 32 10 17 1021.3 - 0.0
29/09:30pm 11.7 5.0 5.6 66 2.8 W 30 39 16 21 1021.2 - 0.0
29/09:00pm 11.9 3.1 5.5 65 3.0 WSW 41 46 22 25 1020.8 1020.8 0.0
29/08:30pm 11.9 2.7 5.5 65 3.0 WSW 43 52 23 28 1020.5 - 0.0
29/08:00pm 12.0 2.0 6.1 67 2.8 WSW 48 54 26 29 1020.1 - 0.0
29/07:34pm 12.1 4.3 6.8 70 2.5 W 37 56 20 30 1019.8 - 0.0
29/07:30pm 12.0 4.1 6.3 68 2.7 W 37 48 20 26 1019.7 - 0.0
29/07:24pm 12.1 3.8 5.9 66 2.9 WSW 39 57 21 31 1019.6 - 0.0
29/07:00pm 12.0 0.7 5.6 65 3.0 WSW 54 61 29 33 1019.1 - 0.0
29/06:30pm 12.1 3.4 5.9 66 2.9 WSW 41 57 22 31 1018.9 - 0.0
29/06:00pm 12.0 1.5 5.6 65 3.0 WSW 50 61 27 33 1018.7 1018.7 0.0
29/05:30pm 12.1 1.5 5.3 63 3.2 WSW 50 63 27 34 1018.1 - 0.0

Other Formats:

Comma delimited format used in spreadsheet applications
http://www.bom.gov.au/fwo/IDV60801/IDV60801.94893.axf

JavaScript Object Notation format (JSON) in row-major order
http://www.bom.gov.au/fwo/IDV60801/IDV60801.94893.json